»·PEaware :: N413C KSMO-KFUL

N413C :: KSMO-KFUL

FLIGHT INFORMATION

Flight Status: Arrived
Operator: Privately registered:
United States
More flights under this callsign
Pilot: Alec D. (17934)
Aircraft: CESSNA 182 SKYLANE
(C182)
More flights by this aircraft type
Origin: KSMO Santa Monica Mun
United States
Destination: KFUL Fullerton Mun
United States
More flights between these airports :: More routes between these airports
Route: SMO SMO125 V64 SLI
File this flight plan on PilotEdge
Remarks:
Altitude:
(Current/Filed)
4,000ft
Speed:
(Current/Filed)
135kts
Departed: 07-Oct-19 08:34 PM
Arrived: 07-Oct-19 09:05 PM
Distance/Time
Traveled:
25nm/0:30
Distance/Time
To Go:
Arrived

Flight Plot

Page will automatically refresh every two minutes.


Map Options




Map Legend


Flown Route
Filed Route
Departure Airport
Arrival Airport
Navaid (VOR, NDB)
Fix

Horizontal Profiles

Position Reports

Time Latitude Longitude Heading Altitude Ground
Speed
07-Oct-19 20:13 34.016271 -118.452773 315 178ft 0kts
07-Oct-19 20:14 34.016271 -118.452773 315 178ft 0kts
07-Oct-19 20:15 34.016272 -118.452774 315 178ft 0kts
07-Oct-19 20:16 34.016278 -118.452781 315 178ft 0kts
07-Oct-19 20:17 34.016284 -118.452788 315 178ft 0kts
07-Oct-19 20:18 34.016289 -118.452795 314 178ft 0kts
07-Oct-19 20:19 34.016295 -118.452802 314 178ft 0kts
07-Oct-19 20:20 34.016301 -118.452809 314 178ft 0kts
07-Oct-19 20:21 34.016307 -118.452816 314 178ft 0kts
07-Oct-19 20:22 34.016313 -118.452823 314 178ft 0kts
07-Oct-19 20:23 34.016319 -118.452831 314 178ft 0kts
07-Oct-19 20:24 34.016325 -118.452838 314 178ft 0kts
07-Oct-19 20:25 34.016638 -118.451457 44 178ft 10kts
07-Oct-19 20:26 34.019598 -118.448029 43 178ft 16kts
07-Oct-19 20:27 34.020172 -118.447152 140 178ft 0kts
07-Oct-19 20:28 34.020163 -118.447142 140 178ft 0kts
07-Oct-19 20:29 34.020153 -118.447133 140 178ft 0kts
07-Oct-19 20:30 34.020139 -118.447119 140 178ft 0kts
07-Oct-19 20:31 34.020131 -118.447111 140 178ft 0kts
07-Oct-19 20:32 34.019993 -118.446968 139 178ft 13kts
07-Oct-19 20:33 34.011055 -118.457465 228 502ft 87kts
07-Oct-19 20:34 33.991542 -118.481718 225 1412ft 100kts
07-Oct-19 20:35 33.983989 -118.512992 263 2218ft 98kts
07-Oct-19 20:36 33.999585 -118.515812 73 2956ft 104kts
07-Oct-19 20:37 34.005446 -118.481376 77 3736ft 105kts
07-Oct-19 20:38 34.002852 -118.445152 141 3981ft 133kts
07-Oct-19 20:39 33.971936 -118.417745 147 3991ft 140kts
07-Oct-19 20:40 33.941682 -118.387812 140 3982ft 140kts
07-Oct-19 20:41 33.911515 -118.357359 140 3988ft 142kts
07-Oct-19 20:42 33.880835 -118.326546 140 3993ft 145kts
07-Oct-19 20:43 33.849677 -118.295288 140 3986ft 145kts
07-Oct-19 20:44 33.818537 -118.264083 141 3985ft 145kts
07-Oct-19 20:45 33.787234 -118.233151 140 3984ft 145kts
07-Oct-19 20:46 33.792283 -118.189565 63 3988ft 145kts
07-Oct-19 20:47 33.810532 -118.145933 62 3986ft 145kts
07-Oct-19 20:48 33.828675 -118.102448 62 3983ft 145kts
07-Oct-19 20:49 33.846992 -118.058879 62 3980ft 146kts
07-Oct-19 20:50 33.865466 -118.015319 62 3975ft 146kts
07-Oct-19 20:51 33.883506 -117.971652 63 3973ft 146kts
07-Oct-19 20:52 33.901555 -117.927786 62 3975ft 145kts
07-Oct-19 20:53 33.919254 -117.884989 62 3967ft 137kts
07-Oct-19 20:54 33.936098 -117.844388 61 3982ft 134kts
07-Oct-19 20:55 33.945697 -117.801989 91 3995ft 136kts
07-Oct-19 20:56 33.944266 -117.753387 102 3526ft 150kts
07-Oct-19 20:57 33.914767 -117.754541 256 3006ft 140kts
07-Oct-19 20:58 33.907118 -117.797057 257 2969ft 120kts
07-Oct-19 20:59 33.900028 -117.834083 257 2917ft 101kts
07-Oct-19 21:00 33.893389 -117.868696 257 2229ft 106kts
07-Oct-19 21:01 33.886815 -117.902933 257 1554ft 104kts
07-Oct-19 21:02 33.880368 -117.936451 256 893ft 102kts
07-Oct-19 21:03 33.875198 -117.963253 256 372ft 64kts
07-Oct-19 21:04 33.871917 -117.980331 258 99ft 15kts
07-Oct-19 21:05 33.871294 -117.981205 143 99ft 8kts
07-Oct-19 21:06 33.870615 -117.979347 76 99ft 0kts
07-Oct-19 21:07 33.870616 -117.979347 76 99ft 0kts

Navigation Log

Ident Type
Flight plan parsing failed, navigation log unavailable